Time;durP1;ratioP1;P1;durP2;ratioP2;P2;SDS_P1;SDS_P2;PMS_P1;PMS_P2;Temp;Humidity;BMP_temperature;BMP_pressure;BME280_temperature;BME280_humidity;BME280_pressure;Samples;Min_cycle;Max_cycle;Signal;HPM_P1;HPM_P2
2023/11/12 00:01:13;;;;;;;0.00;0.00;;;;;;;8.75;57.37;98935.09;4415585;32;32751;-88
2023/11/12 00:03:44;;;;;;;0.00;0.00;;;;;;;9.31;55.92;98948.00;4418033;32;33554;-89
2023/11/12 00:06:12;;;;;;;0.10;0.10;;;;;;;8.55;57.19;98938.72;4418116;32;33814;-88
2023/11/12 00:08:40;;;;;;;0.00;0.00;;;;;;;8.82;56.77;98945.22;4425989;32;32275;-88
2023/11/12 00:11:08;;;;;;;0.65;0.65;;;;;;;8.46;57.31;98943.50;4399150;32;32722;-87
2023/11/12 00:13:36;;;;;;;0.75;0.75;;;;;;;8.51;57.57;98939.81;4424122;32;34086;-88
2023/11/12 00:16:04;;;;;;;0.13;0.13;;;;;;;8.90;56.57;98943.06;4424344;32;32691;-88
2023/11/12 00:18:34;;;;;;;0.03;0.00;;;;;;;8.67;56.61;98957.37;4418128;32;32122;-88
2023/11/12 00:21:01;;;;;;;0.00;0.00;;;;;;;9.16;55.72;98946.16;4405438;32;32698;-88
2023/11/12 00:23:41;;;;;;;0.00;0.00;;;;;;;8.74;56.21;98951.84;4412641;32;33450;-88
2023/11/12 00:26:10;;;;;;;0.00;0.00;;;;;;;8.45;57.76;98952.34;4430513;32;32454;-87
2023/11/12 00:28:40;;;;;;;0.00;0.00;;;;;;;8.67;57.18;98952.13;4418834;32;33296;-87
2023/11/12 00:31:08;;;;;;;0.17;0.17;;;;;;;8.93;56.42;98948.19;4402508;32;33820;-87
2023/11/12 00:33:36;;;;;;;0.00;0.00;;;;;;;8.83;56.34;98946.97;4435954;32;32892;-87
2023/11/12 00:36:08;;;;;;;0.30;0.30;;;;;;;8.30;58.11;98952.16;4406715;32;32957;-87
2023/11/12 00:38:36;;;;;;;0.00;0.00;;;;;;;8.71;56.44;98955.44;4397907;32;32784;-87
2023/11/12 00:41:05;;;;;;;0.00;0.00;;;;;;;8.51;57.01;98953.81;4423819;32;33809;-87
2023/11/12 00:43:34;;;;;;;0.00;0.00;;;;;;;8.49;56.84;98963.53;4416974;32;33145;-87
2023/11/12 00:46:04;;;;;;;0.00;0.00;;;;;;;8.72;56.56;98965.03;4424270;32;34251;-86
2023/11/12 00:48:33;;;;;;;0.93;0.85;;;;;;;8.65;56.22;98963.66;4406723;32;32537;-86
2023/11/12 00:51:01;;;;;;;0.68;0.30;;;;;;;8.76;55.61;98963.97;4431800;32;32568;-86
2023/11/12 00:53:30;;;;;;;0.00;0.00;;;;;;;9.12;54.68;98970.97;4429509;32;32862;-86
2023/11/12 00:56:01;;;;;;;0.00;0.00;;;;;;;9.18;54.17;98968.00;4416664;32;33055;-86
2023/11/12 00:58:29;;;;;;;0.00;0.00;;;;;;;8.68;56.70;98966.13;4418802;32;33731;-86
2023/11/12 01:00:57;;;;;;;4.90;1.95;;;;;;;8.71;55.84;98963.34;4416423;32;34450;-86
2023/11/12 01:03:28;;;;;;;0.08;0.08;;;;;;;8.72;56.60;98979.06;4415167;32;32778;-86
2023/11/12 01:05:56;;;;;;;0.00;0.00;;;;;;;8.81;55.37;98983.00;4411187;32;33560;-86
2023/11/12 01:08:24;;;;;;;0.00;0.00;;;;;;;8.63;55.99;98986.53;4410712;32;32513;-87
2023/11/12 01:10:55;;;;;;;0.37;0.37;;;;;;;8.74;55.61;98994.78;4404493;32;32714;-87
2023/11/12 01:13:23;;;;;;;0.10;0.00;;;;;;;8.91;55.43;98992.16;4415298;32;32143;-88
2023/11/12 01:15:51;;;;;;;0.00;0.00;;;;;;;8.86;55.11;98981.00;4394599;32;98586;-85
2023/11/12 01:18:20;;;;;;;0.10;0.10;;;;;;;8.71;55.20;98990.50;4431800;32;32459;-86
2023/11/12 01:20:50;;;;;;;0.00;0.00;;;;;;;8.70;55.79;98980.91;4437223;32;34194;-83
2023/11/12 01:23:18;;;;;;;0.00;0.00;;;;;;;8.44;56.10;98982.16;4435481;32;33162;-84
2023/11/12 01:25:47;;;;;;;0.00;0.00;;;;;;;8.23;56.26;98987.59;4416543;32;33793;-84
2023/11/12 01:28:15;;;;;;;0.00;0.00;;;;;;;8.84;54.70;98982.03;4421120;32;32475;-84
2023/11/12 01:30:43;;;;;;;0.20;0.20;;;;;;;8.99;53.96;98978.63;4411064;32;33342;-84
2023/11/12 01:33:11;;;;;;;0.05;0.05;;;;;;;8.69;54.87;98984.50;4417385;32;34691;-87
2023/11/12 01:35:39;;;;;;;0.00;0.00;;;;;;;8.37;56.21;98986.03;4417699;32;34502;-88
2023/11/12 01:38:07;;;;;;;0.00;0.00;;;;;;;8.40;55.92;98991.16;4416780;32;32240;-88
2023/11/12 01:40:39;;;;;;;0.85;0.10;;;;;;;8.55;55.54;98983.47;4410614;32;33130;-87
2023/11/12 01:43:08;;;;;;;0.00;0.00;;;;;;;8.29;56.23;98993.41;4404458;32;32856;-87
2023/11/12 01:45:36;;;;;;;0.00;0.00;;;;;;;8.48;55.42;98979.41;4423624;32;33010;-88
2023/11/12 01:48:05;;;;;;;0.00;0.00;;;;;;;8.29;55.74;98982.88;4417446;32;32699;-88
2023/11/12 01:50:33;;;;;;;0.00;0.00;;;;;;;8.32;55.89;98982.75;4399344;32;32949;-88
2023/11/12 01:53:01;;;;;;;0.00;0.00;;;;;;;8.25;55.76;98996.25;4415998;32;33022;-89
2023/11/12 01:55:30;;;;;;;0.00;0.00;;;;;;;8.24;55.85;99000.66;4406937;32;32804;-90
2023/11/12 01:58:00;;;;;;;0.08;0.05;;;;;;;8.39;55.05;98992.06;4418225;32;31914;-89
2023/11/12 02:00:28;;;;;;;1.48;1.37;;;;;;;8.79;53.92;98987.53;4398716;32;33031;-89
2023/11/12 02:02:57;;;;;;;0.00;0.00;;;;;;;8.95;53.54;98993.72;4411611;32;32698;-89
2023/11/12 02:05:25;;;;;;;0.00;0.00;;;;;;;8.68;53.62;98997.69;4403449;32;33171;-89
2023/11/12 02:08:00;;;;;;;0.00;0.00;;;;;;;8.69;53.59;98992.38;4420499;32;32294;-89
2023/11/12 02:10:35;;;;;;;0.00;0.00;;;;;;;8.63;53.66;98987.41;4416206;32;32806;-88
2023/11/12 02:13:04;;;;;;;0.00;0.00;;;;;;;9.05;52.66;98994.09;4403353;32;32882;-90
2023/11/12 02:15:35;;;;;;;0.25;0.17;;;;;;;8.40;53.99;99008.69;4423817;32;33117;-88
2023/11/12 02:18:03;;;;;;;0.10;0.10;;;;;;;8.65;53.67;99005.75;4419150;32;32452;-91
2023/11/12 02:20:31;;;;;;;0.00;0.00;;;;;;;8.72;53.69;99004.53;4431258;32;32606;-91
2023/11/12 02:23:00;;;;;;;0.00;0.00;;;;;;;8.77;53.02;99013.03;4411266;32;33752;-92
2023/11/12 02:25:57;;;;;;;0.00;0.00;;;;;;;8.44;54.10;99019.00;4379825;32;32847;-88
2023/11/12 02:28:25;;;;;;;0.00;0.00;;;;;;;8.52;53.61;99015.16;4396569;32;32535;-89
2023/11/12 02:30:55;;;;;;;0.03;0.03;;;;;;;8.34;53.99;99025.59;4395838;32;34714;-88
2023/11/12 02:33:27;;;;;;;0.00;0.00;;;;;;;8.42;53.81;99020.88;4365879;32;32879;-88
2023/11/12 02:35:55;;;;;;;;;;;;;;;8.65;53.14;99032.94;4402160;32;33431;-88
2023/11/12 02:38:24;;;;;;;0.00;0.00;;;;;;;8.87;52.78;99032.72;4366269;32;32251;-89
2023/11/12 02:40:52;;;;;;;0.00;0.00;;;;;;;8.56;54.37;99036.00;4379657;32;33770;-89
2023/11/12 02:43:20;;;;;;;0.10;0.10;;;;;;;8.53;54.11;99027.38;4378075;32;33175;-89
2023/11/12 02:45:49;;;;;;;0.43;0.43;;;;;;;8.64;53.43;99038.25;4377633;32;33443;-89
2023/11/12 02:48:17;;;;;;;0.00;0.00;;;;;;;8.75;53.38;99041.22;4389375;32;32419;-86
2023/11/12 02:50:45;;;;;;;0.82;0.30;;;;;;;8.43;53.88;99048.87;4395915;32;32668;-87
2023/11/12 02:53:13;;;;;;;0.00;0.00;;;;;;;8.43;54.00;99046.25;4390760;32;33846;-86
2023/11/12 02:55:41;;;;;;;0.20;0.00;;;;;;;8.67;53.66;99048.63;4383538;32;33043;-87
2023/11/12 02:58:10;;;;;;;0.00;0.00;;;;;;;8.33;54.22;99044.09;4409945;32;32274;-87
2023/11/12 03:00:38;;;;;;;0.00;0.00;;;;;;;8.20;54.85;99051.69;4427587;32;33823;-87
2023/11/12 03:03:06;;;;;;;0.00;0.00;;;;;;;8.27;54.66;99053.12;4423047;32;34041;-87
2023/11/12 03:05:34;;;;;;;0.10;0.08;;;;;;;8.01;55.43;99067.44;4423005;32;33588;-87
2023/11/12 03:08:02;;;;;;;0.60;0.22;;;;;;;8.08;55.30;99068.03;4409813;32;32325;-87
2023/11/12 03:10:30;;;;;;;0.00;0.00;;;;;;;8.29;54.65;99067.03;4404087;32;32982;-87
2023/11/12 03:12:59;;;;;;;0.00;0.00;;;;;;;8.17;55.11;99073.72;4430332;32;33817;-87
2023/11/12 03:15:28;;;;;;;0.00;0.00;;;;;;;8.00;55.49;99073.63;4412169;32;32735;-87
2023/11/12 03:17:55;;;;;;;0.00;0.00;;;;;;;8.11;55.36;99071.34;4411244;32;32424;-86
2023/11/12 03:20:23;;;;;;;1.37;0.43;;;;;;;8.07;55.58;99074.19;4412445;32;32815;-87
2023/11/12 03:22:53;;;;;;;0.00;0.00;;;;;;;7.92;55.86;99070.47;4399805;32;33342;-87
2023/11/12 03:25:21;;;;;;;0.55;0.55;;;;;;;8.01;55.49;99077.97;4417186;32;33363;-85
2023/11/12 03:27:49;;;;;;;0.00;0.00;;;;;;;8.36;54.74;99079.03;4417505;32;33005;-85
2023/11/12 03:30:17;;;;;;;0.20;0.20;;;;;;;8.24;54.67;99081.34;4416777;32;33846;-89
2023/11/12 03:32:45;;;;;;;0.20;0.20;;;;;;;8.13;55.00;99076.56;4425436;32;33566;-90
2023/11/12 03:35:14;;;;;;;0.47;0.47;;;;;;;8.05;55.60;99078.69;4400056;32;33596;-87
2023/11/12 03:37:43;;;;;;;0.22;0.22;;;;;;;7.70;56.03;99078.47;4425293;32;32445;-89
2023/11/12 03:40:11;;;;;;;0.00;0.00;;;;;;;7.87;55.80;99083.81;4406421;32;33347;-89
2023/11/12 03:42:39;;;;;;;0.10;0.10;;;;;;;7.99;55.38;99078.97;4400477;32;34804;-90
2023/11/12 03:45:26;;;;;;;0.00;0.00;;;;;;;8.00;55.45;99078.87;4427398;32;34000;-90
2023/11/12 03:47:56;;;;;;;0.00;0.00;;;;;;;8.18;55.05;99074.59;4430143;32;32540;-90
2023/11/12 03:50:25;;;;;;;3.03;0.25;;;;;;;8.05;55.23;99073.41;4419285;32;32704;-86
2023/11/12 03:52:53;;;;;;;0.00;0.00;;;;;;;8.11;55.12;99073.13;4412063;32;32805;-88
2023/11/12 03:55:22;;;;;;;0.00;0.00;;;;;;;8.26;54.88;99074.22;4417761;32;32705;-88
2023/11/12 03:57:50;;;;;;;0.00;0.00;;;;;;;8.13;55.32;99076.56;4406199;32;32316;-89
2023/11/12 04:00:18;;;;;;;0.00;0.00;;;;;;;7.93;55.88;99085.34;4405917;32;32852;-89
2023/11/12 04:02:48;;;;;;;0.00;0.00;;;;;;;8.09;55.65;99085.50;4415112;32;33080;-88
2023/11/12 04:05:16;;;;;;;0.00;0.00;;;;;;;8.14;55.07;99088.78;4425231;32;33700;-88
2023/11/12 04:07:44;;;;;;;0.00;0.00;;;;;;;8.08;55.11;99083.81;4400238;32;32460;-88
2023/11/12 04:10:13;;;;;;;0.98;0.52;;;;;;;7.99;55.42;99094.72;4404782;32;33755;-87
2023/11/12 04:12:41;;;;;;;0.00;0.00;;;;;;;7.80;56.27;99098.16;4403379;32;33025;-88
2023/11/12 04:15:09;;;;;;;1.20;1.10;;;;;;;8.13;55.10;99101.09;4418225;32;33880;-88
2023/11/12 04:17:38;;;;;;;0.00;0.00;;;;;;;8.14;54.50;99102.78;4398699;32;32549;-88
2023/11/12 04:20:07;;;;;;;1.87;1.17;;;;;;;8.16;54.41;99098.28;4399503;32;33083;-88
2023/11/12 04:22:36;;;;;;;0.00;0.00;;;;;;;8.28;54.04;99096.91;4430784;32;33566;-88
2023/11/12 04:25:04;;;;;;;0.00;0.00;;;;;;;8.29;54.40;99098.59;4430974;32;33415;-87
2023/11/12 04:27:32;;;;;;;0.10;0.10;;;;;;;8.33;54.17;99110.69;4419473;32;32410;-87
2023/11/12 04:30:00;;;;;;;0.10;0.10;;;;;;;8.17;54.29;99113.19;4424843;32;32656;-87
2023/11/12 04:32:28;;;;;;;0.62;0.62;;;;;;;7.99;55.40;99114.00;4426822;32;33819;-87
2023/11/12 04:34:56;;;;;;;0.37;0.37;;;;;;;8.32;53.69;99116.87;4412172;32;34609;-87
2023/11/12 04:37:25;;;;;;;0.00;0.00;;;;;;;8.11;54.31;99112.56;4435965;32;32548;-87
2023/11/12 04:39:53;;;;;;;0.10;0.10;;;;;;;8.11;54.76;99110.78;4412044;32;33753;-87
2023/11/12 04:42:22;;;;;;;0.00;0.00;;;;;;;8.14;54.53;99115.94;4398521;32;33026;-87
2023/11/12 04:44:50;;;;;;;0.00;0.00;;;;;;;8.24;54.04;99105.84;4398691;32;32977;-87
2023/11/12 04:47:18;;;;;;;0.05;0.05;;;;;;;8.25;54.12;99117.22;4424602;32;33436;-87
2023/11/12 04:49:46;;;;;;;0.20;0.20;;;;;;;8.14;54.46;99107.19;4432351;32;32789;-90
2023/11/12 04:52:14;;;;;;;0.00;0.00;;;;;;;8.26;53.69;99119.81;4405100;32;33369;-89
2023/11/12 04:54:47;;;;;;;0.00;0.00;;;;;;;8.21;53.79;99116.50;4400244;32;33031;-91
2023/11/12 04:57:17;;;;;;;0.00;0.00;;;;;;;8.00;54.69;99123.56;4409920;32;33864;-90
2023/11/12 04:59:45;;;;;;;0.03;0.03;;;;;;;8.27;53.51;99129.41;4405563;32;33110;-92
2023/11/12 05:02:14;;;;;;;0.00;0.00;;;;;;;8.29;53.69;99124.06;4400883;32;32800;-90
2023/11/12 05:04:43;;;;;;;0.00;0.00;;;;;;;8.07;54.95;99135.53;4399539;32;34224;-89
2023/11/12 05:10:05;;;;;;;0.00;0.00;;;;;;;8.03;54.63;99143.62;4420752;32;33449;-88
2023/11/12 05:12:33;;;;;;;0.00;0.00;;;;;;;7.80;56.06;99142.84;4405828;32;32718;-88
2023/11/12 05:15:01;;;;;;;0.00;0.00;;;;;;;8.19;54.89;99144.66;4424427;32;33953;-86
2023/11/12 05:17:29;;;;;;;0.40;0.40;;;;;;;8.02;55.51;99137.50;4417804;32;32851;-86
2023/11/12 05:19:57;;;;;;;0.00;0.00;;;;;;;8.08;54.96;99141.66;4416926;32;32739;-86
2023/11/12 05:22:25;;;;;;;0.03;0.03;;;;;;;7.92;55.24;99142.31;4411670;32;33067;-86
2023/11/12 05:24:53;;;;;;;0.20;0.20;;;;;;;7.94;55.64;99140.47;4417909;32;35008;-86
2023/11/12 05:27:22;;;;;;;0.52;0.52;;;;;;;7.90;55.57;99149.41;4410593;32;33185;-86
2023/11/12 05:29:52;;;;;;;0.00;0.00;;;;;;;8.16;54.71;99147.41;4416620;32;32098;-86
2023/11/12 05:32:20;;;;;;;0.00;0.00;;;;;;;8.09;55.01;99146.84;4414609;32;33884;-86
2023/11/12 05:34:48;;;;;;;0.25;0.15;;;;;;;8.04;55.12;99146.19;4416827;32;34110;-87
2023/11/12 05:37:16;;;;;;;0.05;0.05;;;;;;;7.96;55.21;99149.13;4405279;32;32323;-87
2023/11/12 05:39:44;;;;;;;0.00;0.00;;;;;;;8.10;54.79;99145.91;4399025;32;33392;-87
2023/11/12 05:42:12;;;;;;;0.03;0.03;;;;;;;7.94;54.87;99164.13;4416842;32;32970;-87
2023/11/12 05:44:39;;;;;;;0.20;0.20;;;;;;;7.89;55.39;99163.47;4414969;32;33612;-87
2023/11/12 05:47:07;;;;;;;0.00;0.00;;;;;;;7.99;55.34;99178.87;4415008;32;34036;-87
2023/11/12 05:49:35;;;;;;;1.75;0.40;;;;;;;8.04;54.62;99171.63;4423876;32;32679;-88
2023/11/12 05:52:03;;;;;;;0.10;0.10;;;;;;;7.99;55.33;99178.87;4403707;32;33149;-88
2023/11/12 05:54:31;;;;;;;0.00;0.00;;;;;;;8.16;54.52;99176.34;4412348;32;33152;-89
2023/11/12 05:57:00;;;;;;;0.00;0.00;;;;;;;8.25;54.23;99165.41;4403905;32;32511;-89
2023/11/12 05:59:28;;;;;;;0.00;0.00;;;;;;;7.80;55.73;99177.00;4399780;32;34203;-88
2023/11/12 06:01:55;;;;;;;0.15;0.15;;;;;;;7.92;55.48;99171.22;4416474;32;34015;-88
2023/11/12 06:04:23;;;;;;;0.10;0.10;;;;;;;8.16;54.68;99173.72;4391970;32;32490;-88
2023/11/12 06:06:51;;;;;;;0.00;0.00;;;;;;;7.84;55.71;99181.22;4413364;32;32223;-86
2023/11/12 06:09:19;;;;;;;0.00;0.00;;;;;;;7.98;55.33;99178.00;4424038;32;33709;-87
2023/11/12 06:12:04;;;;;;;0.20;0.20;;;;;;;7.75;55.98;99189.50;4406011;32;33030;-88
2023/11/12 06:14:33;;;;;;;0.43;0.43;;;;;;;7.63;56.29;99192.63;4423170;32;33264;-87
2023/11/12 06:17:01;;;;;;;0.00;0.00;;;;;;;7.94;55.93;99197.47;4414120;32;32295;-87
2023/11/12 06:19:28;;;;;;;0.00;0.00;;;;;;;7.72;56.16;99213.25;4399863;32;32914;-87
2023/11/12 06:21:57;;;;;;;0.00;0.00;;;;;;;8.04;55.80;99197.91;4409833;32;33217;-87
2023/11/12 06:24:25;;;;;;;0.00;0.00;;;;;;;7.81;56.36;99202.38;4405507;32;32691;-87
2023/11/12 06:26:53;;;;;;;0.08;0.08;;;;;;;7.42;57.63;99205.72;4418232;32;32401;-87
2023/11/12 06:29:21;;;;;;;0.00;0.00;;;;;;;7.85;56.47;99203.94;4410725;32;32969;-87
2023/11/12 06:31:48;;;;;;;0.00;0.00;;;;;;;7.56;57.61;99201.69;4421794;32;34112;-89
2023/11/12 06:34:18;;;;;;;0.05;0.05;;;;;;;7.72;56.96;99205.38;4414585;32;34269;-89
2023/11/12 06:36:46;;;;;;;0.40;0.17;;;;;;;7.58;57.78;99210.34;4416123;32;32213;-89
2023/11/12 06:39:14;;;;;;;0.00;0.00;;;;;;;7.70;57.37;99208.09;4410891;32;33847;-89
2023/11/12 06:41:42;;;;;;;0.00;0.00;;;;;;;7.93;56.51;99211.53;4416071;32;33856;-89
2023/11/12 06:44:15;;;;;;;0.00;0.00;;;;;;;8.02;56.36;99205.84;4417334;32;33028;-89
2023/11/12 06:46:45;;;;;;;1.45;0.75;;;;;;;7.77;57.55;99215.69;4407978;32;32625;-88
2023/11/12 06:49:13;;;;;;;0.00;0.00;;;;;;;7.98;56.47;99214.81;4432758;32;33181;-89
2023/11/12 06:51:42;;;;;;;0.05;0.05;;;;;;;8.17;56.42;99218.38;4412715;32;33334;-89
2023/11/12 06:54:10;;;;;;;0.00;0.00;;;;;;;8.18;56.55;99216.59;4425804;32;32855;-89
2023/11/12 06:56:39;;;;;;;0.10;0.10;;;;;;;8.25;56.00;99220.66;4426025;32;32275;-86
2023/11/12 06:59:07;;;;;;;1.35;1.25;;;;;;;8.25;56.01;99211.91;4401647;32;33682;-88
2023/11/12 07:01:36;;;;;;;0.00;0.00;;;;;;;8.17;56.34;99210.47;4409389;32;34386;-87
2023/11/12 07:04:04;;;;;;;0.00;0.00;;;;;;;8.01;57.31;99234.84;4423631;32;32826;-87
2023/11/12 07:06:33;;;;;;;0.15;0.15;;;;;;;8.01;56.65;99229.59;4412120;32;32033;-87
2023/11/12 07:09:01;;;;;;;0.40;0.40;;;;;;;8.15;56.36;99228.06;4407276;32;33527;-84
2023/11/12 07:11:28;;;;;;;0.35;0.35;;;;;;;8.26;56.64;99234.66;4423694;32;34658;-84
2023/11/12 07:13:56;;;;;;;0.28;0.10;;;;;;;8.39;56.17;99233.22;4436123;32;33434;-84
2023/11/12 07:16:27;;;;;;;0.08;0.08;;;;;;;8.37;56.13;99237.72;4409954;32;32277;-85
2023/11/12 07:18:57;;;;;;;0.20;0.20;;;;;;;8.75;54.92;99232.53;4425957;32;32505;-85
2023/11/12 07:21:27;;;;;;;0.10;0.10;;;;;;;8.39;56.23;99231.44;4418585;32;33304;-86
2023/11/12 07:23:56;;;;;;;0.28;0.28;;;;;;;8.55;55.91;99236.06;4431894;32;33871;-86
2023/11/12 07:26:24;;;;;;;0.00;0.00;;;;;;;8.61;55.66;99239.25;4409863;32;33195;-87
2023/11/12 07:28:53;;;;;;;0.00;0.00;;;;;;;8.54;55.89;99240.44;4424067;32;32543;-86
2023/11/12 07:31:24;;;;;;;0.28;0.28;;;;;;;8.74;55.81;99236.94;4422994;32;33189;-86
2023/11/12 07:33:52;;;;;;;0.00;0.00;;;;;;;8.78;55.89;99233.22;4424664;32;33305;-84
2023/11/12 07:36:24;;;;;;;0.30;0.30;;;;;;;8.86;56.16;99241.63;4439191;32;33781;-84
2023/11/12 07:38:51;;;;;;;0.37;0.37;;;;;;;9.27;54.43;99245.94;4403880;32;33118;-83
2023/11/12 07:41:19;;;;;;;1.10;0.85;;;;;;;8.99;55.31;99249.84;4424231;32;32761;-84
2023/11/12 07:43:47;;;;;;;0.20;0.20;;;;;;;9.27;54.85;99241.50;4411041;32;33564;-83
2023/11/12 07:46:15;;;;;;;0.25;0.22;;;;;;;9.27;54.62;99244.16;4419850;32;32650;-83
2023/11/12 07:48:44;;;;;;;0.00;0.00;;;;;;;9.47;54.01;99246.66;4414262;32;31973;-83
2023/11/12 07:51:14;;;;;;;0.00;0.00;;;;;;;9.88;53.18;99249.09;4418619;32;34719;-83
2023/11/12 07:54:05;;;;;;;0.00;0.00;;;;;;;9.45;54.55;99261.72;4414117;32;32512;-84
2023/11/12 07:56:34;;;;;;;0.32;0.32;;;;;;;9.57;54.81;99269.97;4410578;32;32420;-84
2023/11/12 07:59:09;;;;;;;0.00;0.00;;;;;;;9.26;55.75;99271.41;4436277;32;35102;-84
2023/11/12 08:01:36;;;;;;;0.45;0.45;;;;;;;9.59;54.85;99262.81;4421847;32;33022;-84
2023/11/12 08:04:08;;;;;;;0.20;0.20;;;;;;;9.96;53.68;99260.09;4437332;32;32588;-84
2023/11/12 08:06:36;;;;;;;0.13;0.13;;;;;;;10.27;53.43;99261.22;4423946;32;34235;-84
2023/11/12 08:09:04;;;;;;;0.08;0.08;;;;;;;10.24;52.54;99262.22;4410357;32;33523;-83
2023/11/12 08:11:39;;;;;;;0.08;0.08;;;;;;;10.36;51.84;99265.19;4422633;32;32458;-84
2023/11/12 08:14:08;;;;;;;0.00;0.00;;;;;;;9.90;54.03;99273.59;4411515;32;34391;-83
2023/11/12 08:16:37;;;;;;;0.08;0.08;;;;;;;9.97;53.26;99266.25;4434733;32;33222;-85
2023/11/12 08:19:06;;;;;;;0.32;0.32;;;;;;;10.66;52.13;99268.00;4424125;32;34513;-84
2023/11/12 08:21:34;;;;;;;0.10;0.10;;;;;;;10.44;52.96;99279.69;4422397;32;33887;-84
2023/11/12 08:24:03;;;;;;;0.00;0.00;;;;;;;10.41;52.38;99271.09;4415628;32;32819;-84
2023/11/12 08:26:32;;;;;;;1.35;0.10;;;;;;;10.30;51.99;99271.59;4408081;32;32806;-84
2023/11/12 08:29:00;;;;;;;0.32;0.32;;;;;;;10.52;51.85;99282.78;4412429;32;33224;-84
2023/11/12 08:31:28;;;;;;;0.00;0.00;;;;;;;10.07;52.80;99277.19;4412869;32;33379;-84
2023/11/12 08:33:55;;;;;;;0.00;0.00;;;;;;;10.86;50.74;99267.81;4415307;32;32888;-85
2023/11/12 08:36:23;;;;;;;0.32;0.32;;;;;;;10.45;52.48;99286.69;4423660;32;32892;-87
2023/11/12 08:38:51;;;;;;;0.08;0.08;;;;;;;10.68;51.51;99276.69;4415936;32;33389;-88
2023/11/12 08:41:19;;;;;;;0.08;0.08;;;;;;;10.39;52.65;99279.06;4398587;32;32841;-85
2023/11/12 08:43:46;;;;;;;4.68;1.50;;;;;;;10.37;52.81;99278.28;4443962;32;34699;-84
2023/11/12 08:46:15;;;;;;;0.93;0.75;;;;;;;10.73;51.73;99290.53;4411589;32;34151;-84
2023/11/12 08:48:43;;;;;;;0.00;0.00;;;;;;;10.93;50.45;99292.97;4412144;32;32765;-85
2023/11/12 08:51:12;;;;;;;0.03;0.03;;;;;;;11.14;50.06;99290.94;4403057;32;33845;-85
2023/11/12 08:53:40;;;;;;;2.90;0.65;;;;;;;11.12;50.00;99298.13;4417005;32;33075;-85
2023/11/12 08:56:08;;;;;;;0.00;0.00;;;;;;;11.22;49.96;99312.53;4413590;32;33269;-85
2023/11/12 08:58:36;;;;;;;0.50;0.50;;;;;;;11.02;51.06;99303.06;4419289;32;32911;-85
2023/11/12 09:01:08;;;;;;;0.08;0.08;;;;;;;10.40;52.35;99317.75;4414882;32;33407;-84
2023/11/12 09:03:37;;;;;;;0.00;0.00;;;;;;;11.31;49.27;99313.84;4426558;32;33840;-83
2023/11/12 09:06:06;;;;;;;0.00;0.00;;;;;;;11.08;50.17;99319.50;4403296;32;32347;-84
2023/11/12 09:08:33;;;;;;;0.20;0.13;;;;;;;11.43;50.21;99320.22;4411004;32;32866;-83
2023/11/12 09:11:01;;;;;;;0.00;0.00;;;;;;;11.33;49.74;99322.53;4421830;32;33290;-83
2023/11/12 09:13:32;;;;;;;0.32;0.00;;;;;;;11.41;49.32;99315.03;4418236;32;33134;-84
2023/11/12 09:16:00;;;;;;;0.13;0.13;;;;;;;11.05;50.56;99312.59;4411222;32;34304;-84
2023/11/12 09:18:27;;;;;;;0.00;0.00;;;;;;;11.96;47.48;99312.00;4410801;32;33957;-84
2023/11/12 09:20:56;;;;;;;0.37;0.37;;;;;;;12.20;47.04;99311.50;4401254;32;33783;-84
2023/11/12 09:23:24;;;;;;;0.08;0.08;;;;;;;12.44;46.10;99304.78;4414364;32;33824;-87
2023/11/12 09:25:52;;;;;;;0.00;0.00;;;;;;;12.39;46.86;99309.50;4404246;32;32489;-87
2023/11/12 09:28:19;;;;;;;0.00;0.00;;;;;;;12.79;45.05;99301.81;4408353;32;32598;-86
2023/11/12 09:30:47;;;;;;;1.30;0.10;;;;;;;12.18;46.86;99318.69;4422976;32;33569;-87
2023/11/12 09:33:27;;;;;;;0.50;0.47;;;;;;;12.32;46.75;99313.44;4410187;32;33587;-86
2023/11/12 09:35:55;;;;;;;3.62;0.37;;;;;;;12.42;45.43;99313.75;4427779;32;34659;-87
2023/11/12 09:38:22;;;;;;;0.10;0.10;;;;;;;12.36;45.86;99322.91;4406555;32;32430;-87
2023/11/12 09:40:53;;;;;;;0.10;0.10;;;;;;;12.18;47.68;99308.09;4405644;32;33920;-88
2023/11/12 09:43:25;;;;;;;0.03;0.03;;;;;;;12.37;46.41;99314.03;4422274;32;32684;-87
2023/11/12 09:45:56;;;;;;;0.55;0.55;;;;;;;12.71;45.69;99312.00;4397467;32;32348;-87
2023/11/12 09:48:35;;;;;;;0.00;0.00;;;;;;;12.80;45.60;99314.97;4415225;32;33335;-87
2023/11/12 09:51:05;;;;;;;0.00;0.00;;;;;;;12.90;44.69;99317.03;4411104;32;33320;-87
2023/11/12 09:53:33;;;;;;;0.50;0.50;;;;;;;12.68;45.71;99315.72;4405211;32;32763;-87
2023/11/12 09:56:08;;;;;;;0.30;0.15;;;;;;;12.90;44.30;99317.03;4410959;32;32135;-87
2023/11/12 09:58:42;;;;;;;0.00;0.00;;;;;;;13.15;43.61;99319.91;4404255;32;33757;-87
2023/11/12 10:01:13;;;;;;;0.28;0.10;;;;;;;12.82;45.17;99318.38;4415355;32;33867;-87
2023/11/12 10:03:47;;;;;;;0.65;0.65;;;;;;;12.45;45.82;99318.88;4418007;32;34328;-87
2023/11/12 10:06:16;;;;;;;0.95;0.20;;;;;;;12.99;43.76;99314.69;4414870;32;32440;-87
2023/11/12 10:08:45;;;;;;;0.10;0.10;;;;;;;12.86;44.68;99308.44;4398402;32;33579;-88
2023/11/12 10:11:15;;;;;;;0.00;0.00;;;;;;;13.30;43.90;99302.22;4414497;32;33238;-88
2023/11/12 10:13:43;;;;;;;0.10;0.05;;;;;;;12.92;44.97;99302.78;4427359;32;32773;-85
2023/11/12 10:16:29;;;;;;;1.75;0.65;;;;;;;13.49;42.78;99302.78;4415313;32;32119;-84
2023/11/12 10:19:13;;;;;;;0.60;0.20;;;;;;;13.42;43.96;99306.75;4416861;32;33055;-85
2023/11/12 10:21:56;;;;;;;0.40;0.40;;;;;;;13.36;43.84;99307.16;4423985;32;33666;-85
2023/11/12 10:24:28;;;;;;;1.10;0.45;;;;;;;13.51;43.19;99306.16;4404059;32;33179;-85
2023/11/12 10:27:04;;;;;;;0.00;0.00;;;;;;;13.97;42.08;99308.50;4422574;32;32449;-85
2023/11/12 10:29:32;;;;;;;0.00;0.00;;;;;;;13.82;42.88;99312.19;4431131;32;34468;-84
2023/11/12 10:32:00;;;;;;;0.00;0.00;;;;;;;13.50;44.30;99316.88;4429770;32;32063;-85
2023/11/12 10:34:28;;;;;;;0.22;0.22;;;;;;;13.52;42.73;99315.81;4416533;32;34138;-84
2023/11/12 10:37:14;;;;;;;0.98;0.80;;;;;;;13.55;43.19;99322.75;4410767;32;33384;-84
2023/11/12 10:39:43;;;;;;;0.00;0.00;;;;;;;13.98;42.13;99312.88;4410293;32;33916;-88
2023/11/12 10:42:24;;;;;;;0.00;0.00;;;;;;;13.87;41.38;99317.19;4417933;32;33139;-86
2023/11/12 10:44:58;;;;;;;4.75;0.73;;;;;;;13.96;41.35;99313.94;4404215;32;33467;-88
2023/11/12 10:47:27;;;;;;;0.00;0.00;;;;;;;14.08;41.79;99315.75;4427977;32;32681;-87
2023/11/12 10:49:55;;;;;;;0.08;0.08;;;;;;;14.23;41.64;99314.75;4397436;32;32849;-86
2023/11/12 10:52:23;;;;;;;0.00;0.00;;;;;;;13.90;41.93;99315.16;4409781;32;34159;-86
2023/11/12 10:54:51;;;;;;;0.50;0.05;;;;;;;14.41;41.32;99315.34;4416141;32;33117;-86
2023/11/12 10:57:23;;;;;;;0.20;0.20;;;;;;;13.79;41.52;99321.16;4429339;32;32436;-86
2023/11/12 10:59:51;;;;;;;0.37;0.37;;;;;;;14.18;41.91;99318.66;4412399;32;32814;-86
2023/11/12 11:02:21;;;;;;;0.10;0.10;;;;;;;13.89;41.81;99321.41;4429822;32;33882;-86
2023/11/12 11:04:49;;;;;;;0.25;0.25;;;;;;;13.95;42.18;99321.00;4416727;32;32751;-87
2023/11/12 11:07:16;;;;;;;0.10;0.10;;;;;;;14.08;41.71;99315.75;4416697;32;33342;-86
2023/11/12 11:09:45;;;;;;;0.10;0.00;;;;;;;14.74;41.54;99316.69;4421023;32;32857;-86
2023/11/12 11:12:13;;;;;;;0.20;0.20;;;;;;;14.52;40.80;99319.94;4426361;32;32939;-86
2023/11/12 11:14:40;;;;;;;0.15;0.15;;;;;;;14.55;40.42;99317.94;4414619;32;32793;-86
2023/11/12 11:17:36;;;;;;;0.03;0.03;;;;;;;14.26;40.72;99326.97;4407735;32;32362;-86
2023/11/12 11:20:11;;;;;;;0.55;0.55;;;;;;;13.94;41.48;99321.97;4411572;32;32667;-85
2023/11/12 11:22:40;;;;;;;0.00;0.00;;;;;;;14.14;41.68;99325.13;4420215;32;32831;-86
2023/11/12 11:25:22;;;;;;;0.43;0.43;;;;;;;14.31;41.35;99328.38;4402172;32;32683;-86
2023/11/12 11:28:19;;;;;;;0.00;0.00;;;;;;;13.96;40.80;99328.06;4409851;32;32410;-86
2023/11/12 11:31:10;;;;;;;0.40;0.40;;;;;;;14.11;41.18;99320.88;4403292;32;32626;-86
2023/11/12 11:33:46;;;;;;;0.77;0.77;;;;;;;14.45;41.62;99322.16;4408705;32;34626;-86
2023/11/12 11:36:16;;;;;;;0.45;0.30;;;;;;;14.08;40.69;99324.56;4407317;32;32754;-86
2023/11/12 11:39:10;;;;;;;0.45;0.30;;;;;;;14.06;41.06;99328.31;4402904;32;32370;-86
2023/11/12 11:41:47;;;;;;;0.00;0.00;;;;;;;14.33;40.33;99328.25;4420894;32;33131;-85
2023/11/12 11:44:31;;;;;;;0.00;0.00;;;;;;;13.88;41.26;99330.34;4435391;32;32770;-86
2023/11/12 11:47:04;;;;;;;0.10;0.10;;;;;;;14.21;41.43;99334.41;4436934;32;34851;-87
2023/11/12 11:49:32;;;;;;;0.10;0.10;;;;;;;13.93;42.65;99333.56;4425109;32;33040;-87
2023/11/12 11:52:00;;;;;;;0.10;0.10;;;;;;;14.19;41.42;99328.31;4414261;32;32725;-87
2023/11/12 11:54:28;;;;;;;0.40;0.40;;;;;;;14.42;41.15;99327.66;4424977;32;32877;-87